Time;durP1;ratioP1;P1;durP2;ratioP2;P2;SDS_P1;SDS_P2;PMS_P1;PMS_P2;Temp;Humidity;BMP_temperature;BMP_pressure;BME280_temperature;BME280_humidity;BME280_pressure;Samples;Min_cycle;Max_cycle;Signal;HPM_P1;HPM_P2
2024/03/16 00:00:33;;;;;;;;;;;;;;;;;;5048413;28;5051;-59
2024/03/16 00:02:59;;;;;;;;;;;;;;;;;;5048160;28;5055;-59
2024/03/16 00:05:25;;;;;;;;;;;;;;;;;;5047634;28;4864;-60
2024/03/16 00:07:50;;;;;;;;;;;;;;;;;;5046186;28;5396;-59
2024/03/16 00:10:16;;;;;;;;;;;;;;;;;;5062517;28;1974;-59
2024/03/16 00:12:41;;;;;;;;;;;;;;;;;;5072333;28;5042;-59
2024/03/16 00:15:07;;;;;;;;;;;;;;;;;;5049693;28;4964;-58
2024/03/16 00:17:32;;;;;;;;;;;;;;;;;;5046931;28;5109;-58
2024/03/16 00:19:58;;;;;;;;;;;;;;;;;;5047030;28;4969;-58
2024/03/16 00:22:23;;;;;;;;;;;;;;;;;;5040474;28;3745;-58
2024/03/16 00:24:49;;;;;;;;;;;;;;;;;;5044068;28;4984;-58
2024/03/16 00:27:14;;;;;;;;;;;;;;;;;;5042858;28;5189;-58
2024/03/16 00:29:40;;;;;;;;;;;;;;;;;;5043533;28;5182;-58
2024/03/16 00:32:05;;;;;;;;;;;;;;;;;;5042255;28;5134;-58
2024/03/16 00:34:30;;;;;;;;;;;;;;;;;;5049828;28;1076;-58
2024/03/16 00:36:57;;;;;;;;;;;;;;;;;;5040941;28;5298;-58
2024/03/16 00:39:23;;;;;;;;;;;;;;;;;;5062638;28;4525;-59
2024/03/16 00:41:49;;;;;;;;;;;;;;;;;;5047697;28;5097;-58
2024/03/16 00:44:14;;;;;;;;;;;;;;;;;;5047864;28;5014;-59
2024/03/16 00:46:40;;;;;;;;;;;;;;;;;;5045560;28;3344;-59
2024/03/16 00:49:05;;;;;;;;;;;;;;;;;;5043850;28;4823;-59
2024/03/16 00:51:30;;;;;;;;;;;;;;;;;;5040277;28;4650;-59
2024/03/16 00:53:56;;;;;;;;;;;;;;;;;;5042300;28;5075;-59
2024/03/16 00:56:22;;;;;;;;;;;;;;;;;;5039539;28;4680;-59
2024/03/16 00:58:47;;;;;;;;;;;;;;;;;;5044361;28;5110;-57
2024/03/16 01:01:12;;;;;;;;;;;;;;;;;;5043775;28;3969;-58
2024/03/16 01:03:38;;;;;;;;;;;;;;;;;;5042448;28;5151;-59
2024/03/16 01:06:03;;;;;;;;;;;;;;;;;;5040329;28;4912;-58
2024/03/16 01:08:29;;;;;;;;;;;;;;;;;;5022835;28;5247;-59
2024/03/16 01:10:54;;;;;;;;;;;;;;;;;;5006517;28;5198;-58
2024/03/16 01:13:20;;;;;;;;;;;;;;;;;;5034573;28;3302;-59
2024/03/16 01:15:45;;;;;;;;;;;;;;;;;;5022298;28;5142;-58
2024/03/16 01:18:10;;;;;;;;;;;;;;;;;;5022972;28;4553;-59
2024/03/16 01:20:36;;;;;;;;;;;;;;;;;;5015651;28;4628;-58
2024/03/16 01:23:04;;;;;;;;;;;;;;;;;;5020339;28;4560;-59
2024/03/16 01:25:29;;;;;;;;;;;;;;;;;;5020640;28;3380;-58
2024/03/16 01:27:54;;;;;;;;;;;;;;;;;;5036636;28;5000;-58
2024/03/16 01:30:21;;;;;;;;;;;;;;;;;;5018246;28;4692;-58
2024/03/16 01:32:47;;;;;;;;;;;;;;;;;;5021650;28;5186;-58
2024/03/16 01:35:12;;;;;;;;;;;;;;;;;;5023626;28;5046;-58
2024/03/16 01:37:37;;;;;;;;;;;;;;;;;;5019024;28;3308;-60
2024/03/16 01:40:04;;;;;;;;;;;;;;;;;;5022124;28;4590;-59
2024/03/16 01:42:29;;;;;;;;;;;;;;;;;;5018160;28;4910;-60
2024/03/16 01:45:07;;;;;;;;;;;;;;;;;;5019842;28;5015;-58
2024/03/16 01:47:33;;;;;;;;;;;;;;;;;;5016978;28;4575;-58
2024/03/16 01:49:59;;;;;;;;;;;;;;;;;;5021812;28;5069;-59
2024/03/16 01:52:24;;;;;;;;;;;;;;;;;;5019563;28;3518;-58
2024/03/16 01:54:50;;;;;;;;;;;;;;;;;;5017775;28;4800;-59
2024/03/16 01:57:15;;;;;;;;;;;;;;;;;;5039305;28;4634;-58
2024/03/16 01:59:41;;;;;;;;;;;;;;;;;;5032113;28;5137;-58
2024/03/16 02:02:08;;;;;;;;;;;;;;;;;;5021416;28;5069;-59
2024/03/16 02:04:34;;;;;;;;;;;;;;;;;;5037878;28;3375;-60
2024/03/16 02:07:08;;;;;;;;;;;;;;;;;;5015615;28;4524;-57
2024/03/16 02:09:34;;;;;;;;;;;;;;;;;;5034325;28;4881;-58
2024/03/16 02:11:59;;;;;;;;;;;;;;;;;;5044346;28;5003;-58
2024/03/16 02:14:24;;;;;;;;;;;;;;;;;;5037770;28;5106;-59
2024/03/16 02:16:50;;;;;;;;;;;;;;;;;;5044586;28;4990;-59
2024/03/16 02:19:15;;;;;;;;;;;;;;;;;;5045962;28;3419;-58
2024/03/16 02:21:40;;;;;;;;;;;;;;;;;;5041346;28;5036;-58
2024/03/16 02:24:06;;;;;;;;;;;;;;;;;;5046752;28;5175;-59
2024/03/16 02:26:31;;;;;;;;;;;;;;;;;;5038090;28;4580;-58
2024/03/16 02:28:56;;;;;;;;;;;;;;;;;;5044100;28;5120;-58
2024/03/16 02:31:22;;;;;;;;;;;;;;;;;;5045525;28;3359;-60
2024/03/16 02:33:47;;;;;;;;;;;;;;;;;;5030149;28;5082;-59
2024/03/16 02:36:13;;;;;;;;;;;;;;;;;;5046193;28;4969;-58
2024/03/16 02:38:40;;;;;;;;;;;;;;;;;;5048321;28;5129;-58
2024/03/16 02:41:07;;;;;;;;;;;;;;;;;;5050835;28;5546;-58
2024/03/16 02:43:32;;;;;;;;;;;;;;;;;;5046720;28;3428;-57
2024/03/16 02:45:58;;;;;;;;;;;;;;;;;;5049481;28;4734;-58
2024/03/16 02:48:23;;;;;;;;;;;;;;;;;;5042064;28;4961;-59
2024/03/16 02:50:49;;;;;;;;;;;;;;;;;;5046846;28;4959;-58
2024/03/16 02:53:14;;;;;;;;;;;;;;;;;;5040894;28;5119;-58
2024/03/16 02:55:40;;;;;;;;;;;;;;;;;;5040397;28;3368;-58
2024/03/16 02:58:05;;;;;;;;;;;;;;;;;;5041640;28;4992;-59
2024/03/16 03:00:30;;;;;;;;;;;;;;;;;;5044390;28;5024;-59
2024/03/16 03:02:57;;;;;;;;;;;;;;;;;;5047000;28;4950;-59
2024/03/16 03:05:23;;;;;;;;;;;;;;;;;;5044096;28;4839;-59
2024/03/16 03:07:48;;;;;;;;;;;;;;;;;;5056806;28;5027;-59
2024/03/16 03:10:14;;;;;;;;;;;;;;;;;;5034298;28;3668;-58
2024/03/16 03:12:39;;;;;;;;;;;;;;;;;;5052685;28;5073;-58
2024/03/16 03:15:06;;;;;;;;;;;;;;;;;;5047101;28;4598;-58
2024/03/16 03:17:32;;;;;;;;;;;;;;;;;;5044800;28;4747;-59
2024/03/16 03:19:58;;;;;;;;;;;;;;;;;;5053608;28;5120;-58
2024/03/16 03:22:23;;;;;;;;;;;;;;;;;;5049986;28;3349;-58
2024/03/16 03:24:49;;;;;;;;;;;;;;;;;;5044969;28;4996;-61
2024/03/16 03:27:14;;;;;;;;;;;;;;;;;;5042658;28;4743;-58
2024/03/16 03:29:39;;;;;;;;;;;;;;;;;;5041691;28;4973;-58
2024/03/16 03:32:05;;;;;;;;;;;;;;;;;;5050124;28;4715;-60
2024/03/16 03:34:30;;;;;;;;;;;;;;;;;;5048361;28;3403;-58
2024/03/16 03:36:56;;;;;;;;;;;;;;;;;;5049013;28;5059;-58
2024/03/16 03:39:24;;;;;;;;;;;;;;;;;;5048523;28;5220;-58
2024/03/16 03:41:49;;;;;;;;;;;;;;;;;;5044767;28;5211;-59
2024/03/16 03:44:21;;;;;;;;;;;;;;;;;;5039058;28;5179;-59
2024/03/16 03:46:50;;;;;;;;;;;;;;;;;;5044086;28;5084;-59
2024/03/16 03:49:35;;;;;;;;;;;;;;;;;;5024466;28;3907;-59
2024/03/16 03:52:02;;;;;;;;;;;;;;;;;;5045855;28;5139;-58
2024/03/16 03:54:27;;;;;;;;;;;;;;;;;;5040445;28;4502;-58
2024/03/16 03:56:53;;;;;;;;;;;;;;;;;;5045373;28;5006;-58
2024/03/16 03:59:19;;;;;;;;;;;;;;;;;;5045858;28;5175;-58
2024/03/16 04:01:44;;;;;;;;;;;;;;;;;;5041978;28;3417;-58
2024/03/16 04:04:09;;;;;;;;;;;;;;;;;;5045082;28;5030;-57
2024/03/16 04:06:35;;;;;;;;;;;;;;;;;;5054573;28;5306;-59
2024/03/16 04:09:00;;;;;;;;;;;;;;;;;;5043616;28;5283;-57
2024/03/16 04:11:26;;;;;;;;;;;;;;;;;;5040170;28;5176;-58
2024/03/16 04:13:51;;;;;;;;;;;;;;;;;;5062985;28;5090;-61
2024/03/16 04:16:16;;;;;;;;;;;;;;;;;;5046069;28;3296;-58
2024/03/16 04:18:42;;;;;;;;;;;;;;;;;;5043232;28;4544;-58
2024/03/16 04:21:07;;;;;;;;;;;;;;;;;;5044373;28;4450;-57
2024/03/16 04:23:33;;;;;;;;;;;;;;;;;;5037041;28;5022;-57
2024/03/16 04:25:58;;;;;;;;;;;;;;;;;;5042565;28;4588;-58
2024/03/16 04:28:23;;;;;;;;;;;;;;;;;;5047868;28;3677;-57
2024/03/16 04:30:49;;;;;;;;;;;;;;;;;;5048031;28;5039;-57
2024/03/16 04:33:15;;;;;;;;;;;;;;;;;;5048030;28;4578;-58
2024/03/16 04:35:41;;;;;;;;;;;;;;;;;;5038764;28;4957;-59
2024/03/16 04:38:09;;;;;;;;;;;;;;;;;;5046507;28;4523;-58
2024/03/16 04:40:34;;;;;;;;;;;;;;;;;;5044834;28;3361;-57
2024/03/16 04:43:00;;;;;;;;;;;;;;;;;;5046857;28;5503;-59
2024/03/16 04:45:25;;;;;;;;;;;;;;;;;;5045593;28;5115;-58
2024/03/16 04:47:50;;;;;;;;;;;;;;;;;;5029548;28;4998;-59
2024/03/16 04:50:16;;;;;;;;;;;;;;;;;;5048109;28;5228;-60
2024/03/16 04:52:41;;;;;;;;;;;;;;;;;;5046101;28;3360;-58
2024/03/16 04:55:07;;;;;;;;;;;;;;;;;;5043317;28;4586;-57
2024/03/16 04:57:32;;;;;;;;;;;;;;;;;;5047295;28;5025;-58
2024/03/16 04:59:57;;;;;;;;;;;;;;;;;;5047312;28;5219;-57
2024/03/16 05:02:23;;;;;;;;;;;;;;;;;;5048395;28;4519;-59
2024/03/16 05:04:48;;;;;;;;;;;;;;;;;;5047547;28;5187;-59
2024/03/16 05:07:13;;;;;;;;;;;;;;;;;;5046148;28;3641;-58
2024/03/16 05:09:39;;;;;;;;;;;;;;;;;;5052641;28;4993;-58
2024/03/16 05:12:04;;;;;;;;;;;;;;;;;;5066105;28;5076;-58
2024/03/16 05:14:31;;;;;;;;;;;;;;;;;;5059291;28;4495;-58
2024/03/16 05:16:57;;;;;;;;;;;;;;;;;;5043596;28;5011;-59
2024/03/16 05:19:22;;;;;;;;;;;;;;;;;;5058421;28;1158;-58
2024/03/16 05:21:47;;;;;;;;;;;;;;;;;;5060553;28;5147;-60
2024/03/16 05:24:13;;;;;;;;;;;;;;;;;;5049132;28;4780;-58
2024/03/16 05:26:38;;;;;;;;;;;;;;;;;;5046361;28;5097;-60
2024/03/16 05:29:05;;;;;;;;;;;;;;;;;;5054379;28;4560;-58
2024/03/16 05:31:31;;;;;;;;;;;;;;;;;;5055051;28;2266;-58
2024/03/16 05:33:57;;;;;;;;;;;;;;;;;;5044452;28;5132;-59
2024/03/16 05:36:22;;;;;;;;;;;;;;;;;;5051677;28;4506;-59
2024/03/16 05:38:47;;;;;;;;;;;;;;;;;;5066715;28;5123;-58
2024/03/16 05:41:13;;;;;;;;;;;;;;;;;;5051075;28;4704;-58
2024/03/16 05:43:38;;;;;;;;;;;;;;;;;;5053583;28;3344;-58
2024/03/16 05:46:04;;;;;;;;;;;;;;;;;;5064785;28;5087;-58
2024/03/16 05:48:29;;;;;;;;;;;;;;;;;;5056731;28;5059;-59
2024/03/16 05:50:55;;;;;;;;;;;;;;;;;;5048999;28;4523;-59
2024/03/16 05:53:21;;;;;;;;;;;;;;;;;;5052944;28;5127;-59
2024/03/16 05:55:46;;;;;;;;;;;;;;;;;;5041560;28;4930;-61
2024/03/16 05:58:12;;;;;;;;;;;;;;;;;;5051202;28;3290;-58
2024/03/16 06:00:40;;;;;;;;;;;;;;;;;;5043002;28;5205;-59
2024/03/16 06:03:06;;;;;;;;;;;;;;;;;;5052756;28;5121;-60
2024/03/16 06:05:38;;;;;;;;;;;;;;;;;;5048202;28;5140;-60
2024/03/16 06:08:07;;;;;;;;;;;;;;;;;;5043105;28;5223;-59
2024/03/16 06:10:33;;;;;;;;;;;;;;;;;;5041984;28;3315;-59
2024/03/16 06:12:58;;;;;;;;;;;;;;;;;;5024873;28;5119;-59
2024/03/16 06:15:24;;;;;;;;;;;;;;;;;;5035588;28;5076;-59
2024/03/16 06:17:49;;;;;;;;;;;;;;;;;;5041466;28;5181;-58
2024/03/16 06:20:18;;;;;;;;;;;;;;;;;;5022911;28;5053;-58
2024/03/16 06:22:44;;;;;;;;;;;;;;;;;;5026277;28;1393;-58
2024/03/16 06:25:11;;;;;;;;;;;;;;;;;;5022032;28;5916;-58
2024/03/16 06:27:43;;;;;;;;;;;;;;;;;;5025162;28;5098;-58
2024/03/16 06:30:09;;;;;;;;;;;;;;;;;;5022528;28;5091;-58
2024/03/16 06:32:38;;;;;;;;;;;;;;;;;;5040663;28;5093;-58
2024/03/16 06:35:04;;;;;;;;;;;;;;;;;;5021539;28;5455;-59
2024/03/16 06:37:30;;;;;;;;;;;;;;;;;;5029884;28;1260;-58
2024/03/16 06:39:55;;;;;;;;;;;;;;;;;;5026063;28;4615;-59
2024/03/16 06:42:20;;;;;;;;;;;;;;;;;;5027950;28;5053;-62
2024/03/16 06:44:46;;;;;;;;;;;;;;;;;;5028420;28;4993;-59
2024/03/16 06:47:11;;;;;;;;;;;;;;;;;;5025987;28;5078;-58
2024/03/16 06:49:37;;;;;;;;;;;;;;;;;;5022965;28;3358;-58
2024/03/16 06:52:02;;;;;;;;;;;;;;;;;;5021117;28;5041;-58
2024/03/16 06:54:27;;;;;;;;;;;;;;;;;;5022122;28;4740;-58
2024/03/16 06:56:53;;;;;;;;;;;;;;;;;;5021228;28;4927;-59
2024/03/16 06:59:18;;;;;;;;;;;;;;;;;;5022952;28;5015;-59
2024/03/16 07:01:44;;;;;;;;;;;;;;;;;;5027374;28;3545;-59
2024/03/16 07:04:09;;;;;;;;;;;;;;;;;;5022184;28;4965;-63
2024/03/16 07:06:34;;;;;;;;;;;;;;;;;;5042569;28;4835;-60
2024/03/16 07:09:03;;;;;;;;;;;;;;;;;;5038720;28;5636;-59
2024/03/16 07:11:28;;;;;;;;;;;;;;;;;;5029079;28;4473;-62
2024/03/16 07:13:53;;;;;;;;;;;;;;;;;;5028437;28;5112;-61
2024/03/16 07:16:21;;;;;;;;;;;;;;;;;;5028728;28;3738;-61
2024/03/16 07:18:46;;;;;;;;;;;;;;;;;;5028107;28;5077;-66
2024/03/16 07:21:11;;;;;;;;;;;;;;;;;;5026036;28;5197;-64
2024/03/16 07:23:37;;;;;;;;;;;;;;;;;;5018018;28;4701;-67
2024/03/16 07:26:02;;;;;;;;;;;;;;;;;;5020732;28;5075;-66
2024/03/16 07:28:29;;;;;;;;;;;;;;;;;;5028426;28;3383;-62
2024/03/16 07:30:57;;;;;;;;;;;;;;;;;;5009358;28;4534;-63
2024/03/16 07:33:22;;;;;;;;;;;;;;;;;;5027383;28;4464;-62
2024/03/16 07:35:51;;;;;;;;;;;;;;;;;;5043209;28;4920;-62
2024/03/16 07:38:16;;;;;;;;;;;;;;;;;;5012894;28;4691;-65
2024/03/16 07:40:42;;;;;;;;;;;;;;;;;;5022729;28;3654;-64
2024/03/16 07:43:07;;;;;;;;;;;;;;;;;;5024796;28;4389;-62
2024/03/16 07:45:39;;;;;;;;;;;;;;;;;;5027902;28;4949;-62
2024/03/16 07:48:05;;;;;;;;;;;;;;;;;;5009174;28;5109;-63
2024/03/16 07:50:30;;;;;;;;;;;;;;;;;;5026116;28;4776;-62
2024/03/16 07:52:55;;;;;;;;;;;;;;;;;;5027358;28;5121;-63
2024/03/16 07:55:21;;;;;;;;;;;;;;;;;;5023933;28;3693;-62
2024/03/16 07:57:47;;;;;;;;;;;;;;;;;;5028487;28;4837;-61
2024/03/16 08:00:13;;;;;;;;;;;;;;;;;;5028312;28;4498;-61
2024/03/16 08:02:38;;;;;;;;;;;;;;;;;;5026178;28;5134;-62
2024/03/16 08:05:04;;;;;;;;;;;;;;;;;;5029206;28;4896;-63
2024/03/16 08:07:29;;;;;;;;;;;;;;;;;;5033225;28;1365;-63
2024/03/16 08:09:55;;;;;;;;;;;;;;;;;;5030940;28;5082;-63
2024/03/16 08:12:20;;;;;;;;;;;;;;;;;;5050622;28;6209;-63
2024/03/16 08:14:45;;;;;;;;;;;;;;;;;;5048133;28;5107;-64
2024/03/16 08:17:11;;;;;;;;;;;;;;;;;;5055275;28;4665;-63
2024/03/16 08:19:38;;;;;;;;;;;;;;;;;;5054644;28;3435;-62
2024/03/16 08:22:04;;;;;;;;;;;;;;;;;;5053238;28;4975;-62
2024/03/16 08:24:30;;;;;;;;;;;;;;;;;;5049934;28;4526;-62
2024/03/16 08:26:55;;;;;;;;;;;;;;;;;;5040378;28;4920;-63
2024/03/16 08:29:21;;;;;;;;;;;;;;;;;;5037926;28;5166;-66
2024/03/16 08:31:46;;;;;;;;;;;;;;;;;;5022934;28;5100;-64
2024/03/16 08:34:12;;;;;;;;;;;;;;;;;;5048074;28;3517;-64
2024/03/16 08:36:37;;;;;;;;;;;;;;;;;;5044461;28;4858;-63
2024/03/16 08:39:03;;;;;;;;;;;;;;;;;;5025254;28;5081;-63
2024/03/16 08:41:29;;;;;;;;;;;;;;;;;;5054336;28;5042;-63
2024/03/16 08:43:54;;;;;;;;;;;;;;;;;;5045688;28;5108;-64
2024/03/16 08:46:19;;;;;;;;;;;;;;;;;;5044495;28;3392;-64
2024/03/16 08:48:46;;;;;;;;;;;;;;;;;;5016717;28;5206;-66
2024/03/16 08:51:12;;;;;;;;;;;;;;;;;;5046175;28;5087;-67
2024/03/16 08:53:37;;;;;;;;;;;;;;;;;;5053969;28;4981;-65
2024/03/16 08:56:06;;;;;;;;;;;;;;;;;;5043326;28;5551;-66
2024/03/16 08:58:32;;;;;;;;;;;;;;;;;;5051857;28;3480;-66
2024/03/16 09:00:58;;;;;;;;;;;;;;;;;;5045311;28;4872;-67
2024/03/16 09:03:23;;;;;;;;;;;;;;;;;;5044235;28;4572;-67
2024/03/16 09:05:49;;;;;;;;;;;;;;;;;;5044831;28;4543;-65
2024/03/16 09:08:14;;;;;;;;;;;;;;;;;;5054436;28;5053;-66
2024/03/16 09:10:40;;;;;;;;;;;;;;;;;;5046864;28;3493;-66
2024/03/16 09:13:05;;;;;;;;;;;;;;;;;;5051114;28;5596;-68
2024/03/16 09:15:30;;;;;;;;;;;;;;;;;;5034628;28;4903;-72
2024/03/16 09:17:56;;;;;;;;;;;;;;;;;;5034618;28;4699;-64
2024/03/16 09:20:21;;;;;;;;;;;;;;;;;;5032498;28;4669;-63
2024/03/16 09:22:52;;;;;;;;;;;;;;;;;;5039244;28;5041;-63
2024/03/16 09:25:20;;;;;;;;;;;;;;;;;;5039702;28;3796;-63
2024/03/16 09:27:45;;;;;;;;;;;;;;;;;;5034237;28;4688;-63
2024/03/16 09:30:11;;;;;;;;;;;;;;;;;;5032566;28;5191;-62
2024/03/16 09:32:36;;;;;;;;;;;;;;;;;;5016400;28;5187;-63
2024/03/16 09:35:04;;;;;;;;;;;;;;;;;;5033555;28;4516;-62
2024/03/16 09:37:30;;;;;;;;;;;;;;;;;;5036902;28;3848;-63
2024/03/16 09:39:55;;;;;;;;;;;;;;;;;;5033964;28;4684;-63
2024/03/16 09:42:22;;;;;;;;;;;;;;;;;;5034069;28;5141;-65
2024/03/16 09:44:48;;;;;;;;;;;;;;;;;;5034547;28;4501;-62
2024/03/16 09:47:14;;;;;;;;;;;;;;;;;;5034228;28;4871;-65
2024/03/16 09:49:41;;;;;;;;;;;;;;;;;;5034397;28;4110;-62
2024/03/16 09:52:06;;;;;;;;;;;;;;;;;;5036463;28;5038;-66
2024/03/16 09:54:32;;;;;;;;;;;;;;;;;;5016727;28;4923;-59
2024/03/16 09:56:58;;;;;;;;;;;;;;;;;;5034254;28;4599;-58
2024/03/16 09:59:24;;;;;;;;;;;;;;;;;;5034418;28;4884;-58
2024/03/16 10:01:49;;;;;;;;;;;;;;;;;;5049968;28;4803;-60
2024/03/16 10:04:15;;;;;;;;;;;;;;;;;;5035550;28;3733;-60
2024/03/16 10:06:40;;;;;;;;;;;;;;;;;;5033382;28;5009;-57
2024/03/16 10:09:12;;;;;;;;;;;;;;;;;;5034010;28;5110;-58
2024/03/16 10:11:38;;;;;;;;;;;;;;;;;;5033434;28;4736;-60
2024/03/16 10:14:07;;;;;;;;;;;;;;;;;;5017935;28;5105;-58
2024/03/16 10:16:33;;;;;;;;;;;;;;;;;;5050016;28;3927;-58
2024/03/16 10:18:58;;;;;;;;;;;;;;;;;;5034577;28;4652;-58
2024/03/16 10:21:27;;;;;;;;;;;;;;;;;;5033141;28;5296;-58
2024/03/16 10:23:53;;;;;;;;;;;;;;;;;;5035025;28;5069;-57
2024/03/16 10:26:18;;;;;;;;;;;;;;;;;;5027843;28;4563;-58
2024/03/16 10:28:44;;;;;;;;;;;;;;;;;;5038703;28;3461;-58
2024/03/16 10:31:09;;;;;;;;;;;;;;;;;;5037654;28;4921;-57
2024/03/16 10:33:41;;;;;;;;;;;;;;;;;;5044370;28;5154;-57
2024/03/16 10:36:06;;;;;;;;;;;;;;;;;;5033650;28;4999;-61
2024/03/16 10:38:32;;;;;;;;;;;;;;;;;;5038468;28;4654;-65
2024/03/16 10:41:05;;;;;;;;;;;;;;;;;;5023449;28;4585;-64
2024/03/16 10:43:30;;;;;;;;;;;;;;;;;;5044038;28;3395;-63
2024/03/16 10:45:56;;;;;;;;;;;;;;;;;;5050059;28;4686;-63
2024/03/16 10:48:22;;;;;;;;;;;;;;;;;;5055240;28;4976;-60
2024/03/16 10:50:48;;;;;;;;;;;;;;;;;;5046207;28;4766;-63
2024/03/16 10:53:16;;;;;;;;;;;;;;;;;;5037672;28;4532;-60
2024/03/16 10:55:42;;;;;;;;;;;;;;;;;;5039700;28;4025;-62
2024/03/16 10:58:20;;;;;;;;;;;;;;;;;;5040775;28;4530;-60
2024/03/16 11:00:45;;;;;;;;;;;;;;;;;;5035697;28;4996;-59
2024/03/16 11:03:31;;;;;;;;;;;;;;;;;;5057226;28;5239;-64
2024/03/16 11:06:11;;;;;;;;;;;;;;;;;;5027050;28;5140;-63
2024/03/16 11:08:45;;;;;;;;;;;;;;;;;;5038336;28;4554;-61
2024/03/16 11:11:20;;;;;;;;;;;;;;;;;;5039589;28;5080;-64
2024/03/16 11:13:55;;;;;;;;;;;;;;;;;;5033910;28;4919;-66
2024/03/16 11:16:29;;;;;;;;;;;;;;;;;;5037861;28;3515;-64
2024/03/16 11:18:58;;;;;;;;;;;;;;;;;;5035528;28;5012;-68
2024/03/16 11:21:26;;;;;;;;;;;;;;;;;;5057184;28;4865;-65
2024/03/16 11:23:51;;;;;;;;;;;;;;;;;;5042939;28;5093;-68
2024/03/16 11:26:25;;;;;;;;;;;;;;;;;;5036237;28;5133;-66
2024/03/16 11:28:51;;;;;;;;;;;;;;;;;;5039724;28;5091;-64
2024/03/16 11:31:29;;;;;;;;;;;;;;;;;;5020657;28;3502;-59
2024/03/16 11:33:57;;;;;;;;;;;;;;;;;;5037224;28;4667;-61
2024/03/16 11:36:23;;;;;;;;;;;;;;;;;;5023161;28;4554;-68
2024/03/16 11:38:52;;;;;;;;;;;;;;;;;;5040623;28;4501;-64
2024/03/16 11:41:17;;;;;;;;;;;;;;;;;;5037160;28;4920;-67
2024/03/16 11:43:43;;;;;;;;;;;;;;;;;;5023850;28;3800;-67
2024/03/16 11:46:08;;;;;;;;;;;;;;;;;;5040497;28;4902;-66
2024/03/16 11:48:34;;;;;;;;;;;;;;;;;;5023482;28;4510;-66
2024/03/16 11:51:00;;;;;;;;;;;;;;;;;;5045576;28;5162;-66
2024/03/16 11:53:26;;;;;;;;;;;;;;;;;;5050440;28;4490;-66
2024/03/16 11:55:51;;;;;;;;;;;;;;;;;;5039317;28;4618;-64
2024/03/16 11:58:17;;;;;;;;;;;;;;;;;;5052574;28;3459;-65
2024/03/16 12:00:45;;;;;;;;;;;;;;;;;;5031626;28;5022;-64
2024/03/16 12:03:10;;;;;;;;;;;;;;;;;;5035868;28;4902;-63
2024/03/16 12:05:35;;;;;;;;;;;;;;;;;;5034503;28;5158;-62
2024/03/16 12:08:04;;;;;;;;;;;;;;;;;;5034942;28;5110;-69
2024/03/16 12:10:31;;;;;;;;;;;;;;;;;;5015307;28;4123;-64
2024/03/16 12:12:57;;;;;;;;;;;;;;;;;;5017936;28;5935;-64
2024/03/16 12:15:22;;;;;;;;;;;;;;;;;;5033775;28;5057;-65
2024/03/16 12:17:51;;;;;;;;;;;;;;;;;;5036957;28;4685;-64
2024/03/16 12:20:16;;;;;;;;;;;;;;;;;;5032176;28;5143;-65
2024/03/16 12:22:48;;;;;;;;;;;;;;;;;;5045398;28;3580;-64
2024/03/16 12:25:13;;;;;;;;;;;;;;;;;;5045610;28;4433;-65
2024/03/16 12:27:39;;;;;;;;;;;;;;;;;;5036413;28;4506;-67
2024/03/16 12:30:05;;;;;;;;;;;;;;;;;;5054456;28;4504;-64
2024/03/16 12:32:30;;;;;;;;;;;;;;;;;;5033550;28;5010;-62
2024/03/16 12:34:55;;;;;;;;;;;;;;;;;;5013697;28;5168;-61
2024/03/16 12:37:21;;;;;;;;;;;;;;;;;;5031348;28;3591;-64
2024/03/16 12:39:46;;;;;;;;;;;;;;;;;;5042689;28;5037;-62
2024/03/16 12:42:12;;;;;;;;;;;;;;;;;;5045131;28;4941;-60
2024/03/16 12:44:38;;;;;;;;;;;;;;;;;;5049954;28;5155;-64
2024/03/16 12:47:03;;;;;;;;;;;;;;;;;;5033228;28;4501;-64
2024/03/16 12:49:28;;;;;;;;;;;;;;;;;;5043781;28;3763;-61
2024/03/16 12:51:54;;;;;;;;;;;;;;;;;;5047807;28;5094;-62
2024/03/16 12:54:19;;;;;;;;;;;;;;;;;;5049101;28;4972;-61
2024/03/16 12:56:47;;;;;;;;;;;;;;;;;;5037639;28;5087;-63
2024/03/16 12:59:15;;;;;;;;;;;;;;;;;;5034760;28;5124;-60
2024/03/16 13:01:41;;;;;;;;;;;;;;;;;;5042510;28;3551;-61
2024/03/16 13:04:09;;;;;;;;;;;;;;;;;;5033421;28;5113;-61
2024/03/16 13:06:35;;;;;;;;;;;;;;;;;;5047060;28;5006;-61
2024/03/16 13:09:10;;;;;;;;;;;;;;;;;;5044232;28;4598;-61
2024/03/16 13:11:35;;;;;;;;;;;;;;;;;;5043602;28;6091;-60
2024/03/16 13:14:00;;;;;;;;;;;;;;;;;;5036412;28;5166;-62
2024/03/16 13:16:26;;;;;;;;;;;;;;;;;;5046397;28;3418;-64
2024/03/16 13:18:52;;;;;;;;;;;;;;;;;;5039182;28;5116;-62
2024/03/16 13:21:18;;;;;;;;;;;;;;;;;;5040206;28;5420;-63
2024/03/16 13:23:43;;;;;;;;;;;;;;;;;;5044647;28;5102;-61
2024/03/16 13:26:09;;;;;;;;;;;;;;;;;;5043875;28;5035;-61
2024/03/16 13:28:35;;;;;;;;;;;;;;;;;;5054803;28;3467;-62
2024/03/16 13:31:00;;;;;;;;;;;;;;;;;;5041873;28;4560;-65
2024/03/16 13:33:25;;;;;;;;;;;;;;;;;;5044992;28;5058;-60
2024/03/16 13:35:53;;;;;;;;;;;;;;;;;;5050349;28;4931;-62
2024/03/16 13:38:19;;;;;;;;;;;;;;;;;;5040165;28;5420;-66
2024/03/16 13:40:44;;;;;;;;;;;;;;;;;;5037167;28;3584;-64
2024/03/16 13:43:11;;;;;;;;;;;;;;;;;;5050529;28;4523;-61
2024/03/16 13:45:40;;;;;;;;;;;;;;;;;;5042498;28;4898;-63
2024/03/16 13:48:07;;;;;;;;;;;;;;;;;;5050364;28;4516;-64
2024/03/16 13:50:33;;;;;;;;;;;;;;;;;;5038221;28;4543;-60
2024/03/16 13:52:58;;;;;;;;;;;;;;;;;;5043122;28;5005;-69
2024/03/16 13:55:24;;;;;;;;;;;;;;;;;;5047494;28;3484;-60
2024/03/16 13:57:49;;;;;;;;;;;;;;;;;;5049796;28;4506;-63
2024/03/16 14:00:18;;;;;;;;;;;;;;;;;;5054404;28;5051;-67
2024/03/16 14:02:45;;;;;;;;;;;;;;;;;;5040513;28;4534;-63
2024/03/16 14:05:10;;;;;;;;;;;;;;;;;;5048492;28;5102;-64
2024/03/16 14:07:36;;;;;;;;;;;;;;;;;;5027546;28;3227;-62
2024/03/16 14:10:01;;;;;;;;;;;;;;;;;;5029047;28;5107;-61
2024/03/16 14:12:28;;;;;;;;;;;;;;;;;;5037630;28;4971;-60
2024/03/16 14:14:55;;;;;;;;;;;;;;;;;;5036047;28;5122;-63
2024/03/16 14:17:21;;;;;;;;;;;;;;;;;;5038376;28;5219;-68
2024/03/16 14:19:53;;;;;;;;;;;;;;;;;;5040804;28;4949;-65
2024/03/16 14:22:19;;;;;;;;;;;;;;;;;;5032521;28;3276;-64
2024/03/16 14:24:44;;;;;;;;;;;;;;;;;;5004366;28;5151;-61
2024/03/16 14:27:10;;;;;;;;;;;;;;;;;;5029484;28;4708;-61
2024/03/16 14:29:35;;;;;;;;;;;;;;;;;;5027717;28;4628;-63
2024/03/16 14:32:00;;;;;;;;;;;;;;;;;;5032601;28;5106;-64
2024/03/16 14:34:26;;;;;;;;;;;;;;;;;;5031563;28;1204;-64
2024/03/16 14:36:52;;;;;;;;;;;;;;;;;;5037325;28;4512;-61
2024/03/16 14:39:17;;;;;;;;;;;;;;;;;;5025675;28;5135;-62
2024/03/16 14:41:43;;;;;;;;;;;;;;;;;;5024672;28;4921;-62
2024/03/16 14:44:08;;;;;;;;;;;;;;;;;;5038341;28;5205;-65
2024/03/16 14:46:33;;;;;;;;;;;;;;;;;;5033634;28;1101;-63
2024/03/16 14:48:59;;;;;;;;;;;;;;;;;;5035598;28;4938;-62
2024/03/16 14:51:24;;;;;;;;;;;;;;;;;;5030769;28;5055;-68
2024/03/16 14:53:50;;;;;;;;;;;;;;;;;;5028203;28;4930;-61
2024/03/16 14:56:15;;;;;;;;;;;;;;;;;;5028453;28;4913;-62
2024/03/16 14:58:40;;;;;;;;;;;;;;;;;;5031299;28;3305;-64
2024/03/16 15:01:06;;;;;;;;;;;;;;;;;;5038738;28;4997;-66
2024/03/16 15:03:31;;;;;;;;;;;;;;;;;;5032928;28;5058;-62
2024/03/16 15:05:56;;;;;;;;;;;;;;;;;;5031988;28;5348;-63
2024/03/16 15:08:22;;;;;;;;;;;;;;;;;;5031339;28;5158;-67
2024/03/16 15:10:47;;;;;;;;;;;;;;;;;;5061341;28;5425;-67
2024/03/16 15:13:13;;;;;;;;;;;;;;;;;;5053476;28;3062;-61
2024/03/16 15:15:38;;;;;;;;;;;;;;;;;;5068854;28;4770;-62
2024/03/16 15:18:06;;;;;;;;;;;;;;;;;;5054906;28;5091;-64
2024/03/16 15:20:33;;;;;;;;;;;;;;;;;;5053790;28;4545;-64
2024/03/16 15:22:58;;;;;;;;;;;;;;;;;;5040958;28;4500;-64
2024/03/16 15:25:28;;;;;;;;;;;;;;;;;;5058816;28;3392;-61
2024/03/16 15:27:59;;;;;;;;;;;;;;;;;;5052207;28;5048;-61
2024/03/16 15:30:24;;;;;;;;;;;;;;;;;;5054743;28;5059;-63
2024/03/16 15:32:50;;;;;;;;;;;;;;;;;;5062605;28;5227;-63
2024/03/16 15:35:16;;;;;;;;;;;;;;;;;;5051739;28;4628;-62
2024/03/16 15:37:42;;;;;;;;;;;;;;;;;;5060465;28;1227;-67
2024/03/16 15:40:07;;;;;;;;;;;;;;;;;;5054598;28;4601;-64
2024/03/16 15:42:33;;;;;;;;;;;;;;;;;;5059203;28;4852;-62
2024/03/16 15:44:58;;;;;;;;;;;;;;;;;;5074687;28;4983;-62
2024/03/16 15:47:24;;;;;;;;;;;;;;;;;;5052437;28;4994;-60
2024/03/16 15:49:49;;;;;;;;;;;;;;;;;;5050671;28;5091;-64
2024/03/16 15:52:17;;;;;;;;;;;;;;;;;;5052654;28;3240;-63
2024/03/16 15:54:45;;;;;;;;;;;;;;;;;;5055928;28;5122;-62
2024/03/16 15:57:10;;;;;;;;;;;;;;;;;;5043678;28;4888;-63
2024/03/16 15:59:35;;;;;;;;;;;;;;;;;;5061114;28;5373;-62
2024/03/16 16:02:01;;;;;;;;;;;;;;;;;;5029392;28;5200;-64
2024/03/16 16:04:26;;;;;;;;;;;;;;;;;;5052745;28;1202;-60
2024/03/16 16:06:52;;;;;;;;;;;;;;;;;;5042553;28;4442;-65
2024/03/16 16:09:17;;;;;;;;;;;;;;;;;;5050787;28;5127;-64
2024/03/16 16:11:44;;;;;;;;;;;;;;;;;;5043334;28;4892;-63
2024/03/16 16:14:09;;;;;;;;;;;;;;;;;;5037964;28;4938;-67
2024/03/16 16:16:34;;;;;;;;;;;;;;;;;;5047789;28;3332;-66
2024/03/16 16:19:00;;;;;;;;;;;;;;;;;;5045204;28;4945;-69
2024/03/16 16:21:25;;;;;;;;;;;;;;;;;;5056848;28;5024;-68
2024/03/16 16:23:53;;;;;;;;;;;;;;;;;;5046658;28;4644;-65
2024/03/16 16:26:20;;;;;;;;;;;;;;;;;;5023680;28;4965;-59
2024/03/16 16:28:45;;;;;;;;;;;;;;;;;;5047595;28;5102;-59
2024/03/16 16:31:10;;;;;;;;;;;;;;;;;;5039670;28;3396;-62
2024/03/16 16:33:36;;;;;;;;;;;;;;;;;;5044944;28;5133;-60
2024/03/16 16:36:02;;;;;;;;;;;;;;;;;;5043600;28;5208;-61
2024/03/16 16:38:28;;;;;;;;;;;;;;;;;;5039125;28;5134;-65
2024/03/16 16:40:53;;;;;;;;;;;;;;;;;;5042861;28;5157;-62
2024/03/16 16:43:20;;;;;;;;;;;;;;;;;;5052966;28;3155;-59
2024/03/16 16:45:45;;;;;;;;;;;;;;;;;;5045297;28;4466;-59
2024/03/16 16:48:11;;;;;;;;;;;;;;;;;;5045033;28;5165;-62
2024/03/16 16:50:36;;;;;;;;;;;;;;;;;;5049277;28;5176;-63
2024/03/16 16:53:03;;;;;;;;;;;;;;;;;;5041491;28;4672;-62
2024/03/16 16:55:28;;;;;;;;;;;;;;;;;;5059823;28;3325;-61